NCAR-RAP Real-Time Weather Data

Output produced by METARs form (08 May 2021  16:15 UTC)
found at http://weather.rap.ucar.edu/surface/
 
KDBQ 081553Z 07009KT 10SM CLR 11/M04 A3010 RMK AO2 SLP199 T01061039
KDBQ 081453Z 02008KT 10SM CLR 10/M03 A3013 RMK AO2 SLP208 T01001033 58004
KDBQ 081353Z 03004KT 10SM CLR 09/M01 A3015 RMK AO2 SLP213 T00891011 $
KDBQ 081253Z 05005KT 10SM CLR 08/M01 A3014 RMK AO2 SLP213 T00781011 $
KDBQ 081153Z 04004KT 10SM CLR 03/M01 A3014 RMK AO2 SLP213 T00331011 10044 20011 53006 $
KDBQ 081053Z 03008KT 10SM CLR 01/M02 A3013 RMK AO2 SLP208 T00111017 PWINO FZRANO $
KDBQ 080953Z AUTO 03007KT 10SM CLR 01/M02 A3012 RMK AO2 SLP206 T00111022 $
KDBQ 080853Z AUTO 03006KT 10SM CLR 01/M03 A3012 RMK AO2 SLP206 T00111028 53007 PWINO FZRANO $
KDBQ 080753Z AUTO 00000KT 10SM CLR 02/M03 A3011 RMK AO2 SLP202 T00221028 $
KDBQ 080653Z AUTO 00000KT 10SM CLR 02/M03 A3011 RMK AO2 SLP201 T00221028 $
KDBQ 080553Z AUTO 00000KT 10SM CLR 03/M03 A3010 RMK AO2 SLP198 T00331028 10117 20033 401440033 51008 $
KDBQ 080453Z AUTO 09005KT 10SM CLR 05/M02 A3009 RMK AO2 SLP195 T00501022 $
KDBQ 080353Z AUTO 07006KT 10SM CLR 07/M02 A3009 RMK AO2 SLP194 T00671022 $
KDBQ 080253Z AUTO 04004KT 10SM CLR 07/M02 A3008 RMK AO2 SLP190 T00671022 53012 $
KDBQ 080153Z AUTO 04004KT 10SM CLR 09/M03 A3006 RMK AO2 SLP183 T00891028 PWINO $